sim
Sign-in with your pilot id or email,
or register
Callsign
Passwort

Schedule Details

Flight Number: DLH1971 (2)
Departure: Palermo Falcone-Borsellino Airport (LICJ) at 12:05
Arrival: Munich Airport (EDDM) at 14:10
Route: Lufthansa Passenger Schedule. Enter filed route here before submitting Pirep.

Weather Information
Getting current METAR information for LICJ 240650Z 20004KT 170V230 CAVOK 27/10 Q1015
Getting current METAR information for EDDM 240650Z 24003KT 210V300 9999 -RA FEW036 BKN080 13/12 Q1010 BECMG 26008KT

Schedule Frequency

Route Map